Time;durP1;ratioP1;P1;durP2;ratioP2;P2;SDS_P1;SDS_P2;PMS_P1;PMS_P2;Temp;Humidity;BMP_temperature;BMP_pressure;BME280_temperature;BME280_humidity;BME280_pressure;Samples;Min_cycle;Max_cycle;Signal;HPM_P1;HPM_P2
2021/07/31 00:00:15;;;;;;;6.80;2.00;;;;;;;18.94;49.76;98311.53;3569438;40;20421;-64
2021/07/31 00:02:43;;;;;;;8.50;2.55;;;;;;;18.85;50.18;98309.59;3569534;40;20057;-62
2021/07/31 00:05:14;;;;;;;7.28;2.03;;;;;;;18.83;50.21;98311.72;3578930;40;20049;-64
2021/07/31 00:07:43;;;;;;;3.92;1.70;;;;;;;18.77;49.83;98317.03;3580311;40;20123;-63
2021/07/31 00:10:12;;;;;;;3.20;1.70;;;;;;;18.73;49.82;98304.41;3580233;40;20133;-62
2021/07/31 00:12:40;;;;;;;7.82;1.85;;;;;;;18.72;49.88;98305.47;3580265;40;20029;-63
2021/07/31 00:15:09;;;;;;;7.90;2.03;;;;;;;18.73;49.69;98307.09;3579969;40;20056;-62
2021/07/31 00:17:37;;;;;;;10.13;1.92;;;;;;;18.72;49.45;98306.28;3579835;40;20048;-63
2021/07/31 00:20:07;;;;;;;5.72;1.67;;;;;;;18.73;49.46;98310.56;3570596;40;20059;-63
2021/07/31 00:22:36;;;;;;;6.82;2.33;;;;;;;18.69;49.53;98311.31;3570600;40;20049;-62
2021/07/31 00:25:05;;;;;;;6.38;1.90;;;;;;;18.66;49.51;98314.53;3579664;40;20056;-62
2021/07/31 00:27:34;;;;;;;7.75;1.75;;;;;;;18.65;49.85;98312.88;3579943;40;20053;-62
2021/07/31 00:30:03;;;;;;;5.32;1.63;;;;;;;18.61;49.85;98314.47;3570423;40;20350;-62
2021/07/31 00:32:31;;;;;;;4.50;1.80;;;;;;;18.58;50.38;98310.44;3570370;40;20317;-63
2021/07/31 00:35:00;;;;;;;4.82;2.10;;;;;;;18.58;50.34;98317.69;3579766;40;20333;-63
2021/07/31 00:37:28;;;;;;;5.50;1.75;;;;;;;18.54;49.96;98309.34;3579962;40;20057;-64
2021/07/31 00:39:57;;;;;;;5.18;1.70;;;;;;;18.56;50.12;98309.88;3579575;40;20064;-62
2021/07/31 00:42:25;;;;;;;10.30;1.80;;;;;;;18.49;50.04;98317.31;3570661;40;20052;-63
2021/07/31 00:44:53;;;;;;;4.03;1.70;;;;;;;18.44;50.19;98307.38;3641858;22;20400;-69
2021/07/31 00:47:22;;;;;;;4.45;2.00;;;;;;;18.41;50.19;98315.09;3589461;40;20067;-69
2021/07/31 00:49:50;;;;;;;6.22;1.95;;;;;;;18.40;50.53;98314.31;3589237;40;20048;-69
2021/07/31 00:52:17;;;;;;;5.43;1.70;;;;;;;18.37;50.56;98314.00;3590630;40;20044;-71
2021/07/31 00:54:45;;;;;;;3.22;1.60;;;;;;;18.31;50.37;98319.31;3589681;40;20088;-69
2021/07/31 00:57:16;;;;;;;3.83;1.80;;;;;;;18.29;50.82;98316.09;3590471;40;20059;-71
2021/07/31 01:00:05;;;;;;;9.25;2.17;;;;;;;18.26;50.64;98310.44;3590535;40;20048;-69
2021/07/31 01:02:32;;;;;;;9.02;2.40;;;;;;;18.24;50.14;98309.88;3590382;40;20104;-70
2021/07/31 01:05:00;;;;;;;4.60;1.75;;;;;;;18.20;49.96;98316.81;3590553;40;20058;-69
2021/07/31 01:07:28;;;;;;;5.15;1.60;;;;;;;18.18;50.09;98310.91;3589385;40;20049;-70
2021/07/31 01:09:57;;;;;;;2.97;1.52;;;;;;;18.17;49.96;98320.00;3589180;40;20072;-70
2021/07/31 01:12:27;;;;;;;11.15;2.10;;;;;;;18.12;50.00;98311.91;3589444;40;20312;-70
2021/07/31 01:14:54;;;;;;;5.47;1.90;;;;;;;18.10;50.33;98314.06;3590021;40;20033;-70
2021/07/31 01:17:22;;;;;;;4.15;1.70;;;;;;;18.09;50.13;98318.59;3589499;40;20051;-70
2021/07/31 01:19:50;;;;;;;5.07;1.58;;;;;;;18.08;50.22;98314.28;3589075;40;20049;-70
2021/07/31 01:22:20;;;;;;;10.15;2.10;;;;;;;18.10;50.51;98314.06;3589572;40;20367;-70
2021/07/31 01:25:05;;;;;;;4.63;1.80;;;;;;;18.09;50.40;98315.91;3590508;40;20401;-70
2021/07/31 01:27:34;;;;;;;4.55;1.67;;;;;;;18.05;50.76;98320.97;3589341;40;20420;-70
2021/07/31 01:30:04;;;;;;;2.80;1.60;;;;;;;18.02;50.52;98320.66;3589794;40;20056;-68
2021/07/31 01:32:32;;;;;;;5.00;1.67;;;;;;;18.01;50.69;98324.41;3589482;40;20062;-68
2021/07/31 01:35:00;;;;;;;6.80;1.50;;;;;;;17.97;51.09;98315.25;3588832;40;20075;-69
2021/07/31 01:37:32;;;;;;;5.60;1.80;;;;;;;17.95;50.97;98320.03;3589032;40;20080;-69
2021/07/31 01:40:00;;;;;;;10.18;2.10;;;;;;;17.91;51.32;98314.38;3588407;40;20052;-69
2021/07/31 01:42:30;;;;;;;5.75;1.73;;;;;;;17.89;51.41;98327.22;3589848;40;20060;-69
2021/07/31 01:44:58;;;;;;;4.60;1.60;;;;;;;17.88;51.51;98333.63;3588662;40;20351;-69
2021/07/31 01:47:27;;;;;;;3.20;1.55;;;;;;;17.84;51.83;98337.88;3589712;40;20052;-68
2021/07/31 01:49:58;;;;;;;5.28;1.70;;;;;;;17.75;52.00;98329.44;3588216;40;20040;-69
2021/07/31 01:52:33;;;;;;;5.00;1.83;;;;;;;17.71;51.85;98333.66;3588447;40;20048;-69
2021/07/31 01:55:01;;;;;;;4.70;1.60;;;;;;;17.68;52.13;98333.38;3589569;40;20126;-69
2021/07/31 01:57:34;;;;;;;7.85;1.88;;;;;;;17.71;52.14;98338.19;3589525;40;20080;-69
2021/07/31 02:00:17;;;;;;;5.85;1.40;;;;;;;17.67;52.30;98345.91;3589246;40;20044;-68
2021/07/31 02:03:14;;;;;;;3.17;1.60;;;;;;;17.65;52.09;98341.88;3586281;40;20356;-69
2021/07/31 02:06:02;;;;;;;4.53;1.50;;;;;;;17.63;52.39;98335.97;3589701;40;20122;-68
2021/07/31 02:08:34;;;;;;;4.05;1.40;;;;;;;17.63;52.16;98331.41;3588415;40;20057;-69
2021/07/31 02:11:02;;;;;;;3.58;1.67;;;;;;;17.62;52.28;98332.47;3589533;40;20055;-69
2021/07/31 02:13:31;;;;;;;4.93;1.70;;;;;;;17.65;52.57;98328.53;3588619;40;20071;-69
2021/07/31 02:16:05;;;;;;;6.47;1.75;;;;;;;17.63;52.38;98334.09;3588934;40;20084;-69
2021/07/31 02:18:33;;;;;;;7.78;1.70;;;;;;;17.58;52.56;98337.50;3588204;40;20068;-69
2021/07/31 02:21:04;;;;;;;6.28;1.77;;;;;;;17.51;53.11;98330.75;3588527;40;20053;-69
2021/07/31 02:23:45;;;;;;;5.82;1.50;;;;;;;17.54;52.72;98336.41;3588765;40;20394;-69
2021/07/31 02:26:31;;;;;;;2.97;1.65;;;;;;;17.54;53.05;98335.59;3589948;40;20052;-69
2021/07/31 02:29:01;;;;;;;6.43;1.63;;;;;;;17.50;53.20;98326.47;3588149;40;20053;-69
2021/07/31 02:31:35;;;;;;;5.38;1.95;;;;;;;17.42;53.55;98332.22;3589819;40;20472;-69
2021/07/31 02:34:05;;;;;;;2.05;1.50;;;;;;;17.41;53.71;98320.75;3591862;40;20085;-69
2021/07/31 02:36:36;;;;;;;3.75;1.42;;;;;;;17.41;53.76;98331.44;3593428;40;20084;-69
2021/07/31 02:39:10;;;;;;;6.43;1.52;;;;;;;17.39;53.42;98324.72;3593079;40;20130;-69
2021/07/31 02:41:37;;;;;;;5.45;1.60;;;;;;;17.37;53.70;98324.97;3592965;40;20075;-69
2021/07/31 02:44:08;;;;;;;3.88;2.05;;;;;;;17.36;53.69;98323.38;3592991;40;20036;-68
2021/07/31 02:46:37;;;;;;;6.28;1.73;;;;;;;17.34;53.72;98326.25;3592124;40;20044;-69
2021/07/31 02:49:05;;;;;;;7.97;2.15;;;;;;;17.31;53.90;98324.09;3588271;40;20329;-69
2021/07/31 02:51:34;;;;;;;5.60;1.65;;;;;;;17.26;54.08;98332.03;3591525;40;20068;-69
2021/07/31 02:54:29;;;;;;;6.57;1.65;;;;;;;17.18;54.30;98329.78;3590954;40;20308;-69
2021/07/31 02:57:03;;;;;;;5.78;1.58;;;;;;;17.12;54.83;98329.97;3592303;40;20102;-69
2021/07/31 02:59:32;;;;;;;4.50;1.48;;;;;;;17.09;54.88;98326.75;3592079;40;20134;-69
2021/07/31 03:02:02;;;;;;;3.33;1.30;;;;;;;17.04;55.03;98329.34;3590569;40;20064;-69
2021/07/31 03:04:31;;;;;;;8.23;1.88;;;;;;;17.01;54.92;98327.16;3590474;40;20063;-69
2021/07/31 03:07:11;;;;;;;3.67;1.73;;;;;;;16.96;55.25;98329.75;3590348;40;20056;-68
2021/07/31 03:09:42;;;;;;;4.55;1.80;;;;;;;16.90;55.55;98322.75;3591163;40;20318;-69
2021/07/31 03:12:10;;;;;;;4.35;2.00;;;;;;;16.86;55.54;98326.13;3591149;40;20321;-69
2021/07/31 03:14:38;;;;;;;8.43;2.00;;;;;;;16.87;55.52;98317.09;3590341;40;20053;-69
2021/07/31 03:17:06;;;;;;;11.38;2.45;;;;;;;16.87;55.92;98328.56;3588696;40;20126;-68
2021/07/31 03:19:35;;;;;;;7.88;2.47;;;;;;;16.90;55.97;98325.41;3587886;40;20418;-69
2021/07/31 03:22:05;;;;;;;4.75;1.60;;;;;;;16.83;55.81;98316.75;3588135;40;20068;-69
2021/07/31 03:24:42;;;;;;;5.93;2.30;;;;;;;16.75;56.36;98317.97;3588559;40;20052;-68
2021/07/31 03:27:10;;;;;;;2.90;1.40;;;;;;;16.70;56.23;98317.06;3589453;40;20088;-69
2021/07/31 03:29:56;;;;;;;7.45;1.90;;;;;;;16.70;56.72;98327.75;3588964;40;20063;-69
2021/07/31 03:32:26;;;;;;;4.05;1.75;;;;;;;16.66;56.49;98326.63;3587998;40;20055;-69
2021/07/31 03:34:53;;;;;;;5.43;2.00;;;;;;;16.58;56.93;98333.16;3588164;40;20340;-68
2021/07/31 03:37:22;;;;;;;5.38;1.92;;;;;;;16.57;57.11;98324.34;3590576;40;20048;-68
2021/07/31 03:39:51;;;;;;;3.88;1.90;;;;;;;16.56;57.19;98332.59;3590037;40;20376;-68
2021/07/31 03:42:19;;;;;;;4.05;1.67;;;;;;;16.53;56.96;98333.91;3589695;40;20109;-69
2021/07/31 03:44:50;;;;;;;5.82;2.13;;;;;;;16.57;57.10;98334.19;3590610;40;20029;-69
2021/07/31 03:47:18;;;;;;;3.45;1.67;;;;;;;16.50;57.14;98333.56;3590517;40;20259;-68
2021/07/31 03:49:45;;;;;;;6.43;1.80;;;;;;;16.51;57.33;98338.66;3588649;40;20052;-68
2021/07/31 03:52:13;;;;;;;3.75;2.10;;;;;;;16.50;57.56;98334.38;3587978;40;20060;-69
2021/07/31 03:54:47;;;;;;;3.88;1.75;;;;;;;16.50;57.37;98342.38;3589176;40;20043;-69
2021/07/31 03:57:17;;;;;;;5.18;2.30;;;;;;;16.55;57.74;98347.78;3589672;40;20048;-69
2021/07/31 03:59:48;;;;;;;5.00;1.92;;;;;;;16.52;57.37;98336.78;3588716;40;20044;-69
2021/07/31 04:02:17;;;;;;;4.93;1.95;;;;;;;16.43;57.55;98347.06;3589234;40;20052;-68
2021/07/31 04:04:45;;;;;;;5.28;1.85;;;;;;;16.39;57.60;98340.59;3587956;40;20077;-69
2021/07/31 04:07:13;;;;;;;5.93;1.80;;;;;;;16.38;58.10;98346.16;3588143;40;20303;-69
2021/07/31 04:09:59;;;;;;;6.72;1.90;;;;;;;16.35;58.07;98345.59;3588903;40;20052;-68
2021/07/31 04:12:47;;;;;;;4.30;1.90;;;;;;;16.35;58.04;98352.78;3589315;40;20056;-70
2021/07/31 04:15:42;;;;;;;5.35;2.10;;;;;;;16.29;58.24;98351.91;3588050;40;20329;-70
2021/07/31 04:18:10;;;;;;;7.53;2.78;;;;;;;16.33;58.20;98352.22;3587576;40;20048;-68
2021/07/31 04:20:40;;;;;;;5.40;2.03;;;;;;;16.33;58.38;98354.91;3588207;40;20321;-69
2021/07/31 04:23:08;;;;;;;4.07;2.13;;;;;;;16.35;58.62;98353.59;3588884;40;20416;-68
2021/07/31 04:25:47;;;;;;;5.45;2.00;;;;;;;16.34;58.52;98359.97;3588061;40;20048;-69
2021/07/31 04:28:16;;;;;;;3.45;1.90;;;;;;;16.33;58.54;98355.72;3588362;40;20068;-68
2021/07/31 04:30:44;;;;;;;5.85;2.00;;;;;;;16.34;58.22;98357.31;3587941;40;20047;-68
2021/07/31 04:33:12;;;;;;;9.02;2.10;;;;;;;16.36;58.28;98359.72;3588804;40;20049;-69
2021/07/31 04:35:40;;;;;;;5.30;1.80;;;;;;;16.40;58.67;98358.19;3587639;40;20328;-69
2021/07/31 04:38:08;;;;;;;6.25;2.45;;;;;;;16.47;58.70;98364.19;3589069;40;20052;-69
2021/07/31 04:40:35;;;;;;;4.22;2.47;;;;;;;16.48;58.35;98362.34;3589328;40;20235;-69
2021/07/31 04:43:05;;;;;;;9.10;2.95;;;;;;;16.48;58.37;98357.81;3588894;40;20048;-69
2021/07/31 04:45:34;;;;;;;6.78;2.97;;;;;;;16.51;58.23;98356.53;3587453;40;20082;-68
2021/07/31 04:48:02;;;;;;;5.40;3.20;;;;;;;16.59;58.36;98364.13;3588476;40;20342;-68
2021/07/31 04:50:30;;;;;;;4.72;2.38;;;;;;;16.66;58.04;98359.44;3588785;40;20048;-69
2021/07/31 04:52:58;;;;;;;5.30;3.10;;;;;;;16.68;58.17;98365.34;3588130;40;20075;-68
2021/07/31 04:55:25;;;;;;;7.15;3.78;;;;;;;16.68;58.20;98356.53;3590175;40;20059;-69
2021/07/31 04:57:53;;;;;;;8.57;3.72;;;;;;;16.70;57.97;98362.44;3589876;40;20418;-68
2021/07/31 05:00:21;;;;;;;6.63;2.88;;;;;;;16.80;57.90;98370.63;3589613;40;20051;-71
2021/07/31 05:02:50;;;;;;;7.53;2.75;;;;;;;16.85;57.97;98370.69;3589750;40;20051;-70
2021/07/31 05:05:18;;;;;;;5.18;2.53;;;;;;;16.87;57.50;98367.81;3589993;40;20398;-70
2021/07/31 05:07:46;;;;;;;7.70;3.60;;;;;;;16.88;57.77;98372.09;3590017;40;20052;-70
2021/07/31 05:10:13;;;;;;;10.18;3.22;;;;;;;16.86;57.46;98368.84;3589548;40;20063;-69
2021/07/31 05:12:41;;;;;;;9.52;2.00;;;;;;;16.91;57.46;98375.09;3589234;40;20049;-69
2021/07/31 05:15:09;;;;;;;6.30;1.90;;;;;;;16.93;57.18;98372.16;3588969;40;20052;-70
2021/07/31 05:17:37;;;;;;;4.68;2.22;;;;;;;16.95;57.40;98373.53;3589842;40;20085;-69
2021/07/31 05:20:07;;;;;;;4.03;2.20;;;;;;;16.95;57.47;98378.06;3589587;40;20397;-69
2021/07/31 05:22:35;;;;;;;9.98;2.72;;;;;;;16.94;57.05;98381.78;3589056;40;20056;-69
2021/07/31 05:25:03;;;;;;;6.70;2.10;;;;;;;16.97;57.27;98384.78;3589610;40;20091;-69
2021/07/31 05:27:31;;;;;;;8.45;2.03;;;;;;;17.01;57.46;98371.75;3590122;40;20044;-69
2021/07/31 05:29:59;;;;;;;5.75;2.45;;;;;;;17.05;56.81;98379.03;3588911;40;20056;-69
2021/07/31 05:32:27;;;;;;;7.90;2.13;;;;;;;17.07;57.03;98370.78;3589893;40;20048;-69
2021/07/31 05:34:55;;;;;;;5.65;2.30;;;;;;;17.09;57.03;98374.00;3588964;40;20342;-69
2021/07/31 05:37:24;;;;;;;4.93;2.10;;;;;;;17.14;57.30;98382.06;3592365;40;20060;-69
2021/07/31 05:39:52;;;;;;;6.90;2.72;;;;;;;17.09;57.00;98382.00;3592483;40;20044;-69
2021/07/31 05:42:20;;;;;;;5.75;2.35;;;;;;;17.05;57.25;98383.56;3591907;40;20051;-69
2021/07/31 05:44:47;;;;;;;2.78;1.63;;;;;;;17.07;56.99;98387.59;3591664;40;20037;-69
2021/07/31 05:47:15;;;;;;;4.80;2.00;;;;;;;17.06;57.34;98393.19;3590362;40;20048;-69
2021/07/31 05:49:43;;;;;;;5.30;1.73;;;;;;;17.06;56.99;98385.16;3589438;40;20051;-69
2021/07/31 05:52:10;;;;;;;5.53;1.70;;;;;;;17.07;57.06;98381.47;3589827;40;20083;-69
2021/07/31 05:54:39;;;;;;;6.07;2.28;;;;;;;17.03;57.68;98383.00;3589431;40;20093;-69
2021/07/31 05:57:07;;;;;;;7.05;1.90;;;;;;;17.07;57.49;98378.78;3588862;40;20084;-69
2021/07/31 05:59:35;;;;;;;6.05;2.25;;;;;;;17.11;57.57;98379.13;3588203;40;20056;-69
2021/07/31 06:02:03;;;;;;;5.05;2.22;;;;;;;17.24;57.16;98379.56;3588816;40;20315;-69
2021/07/31 06:04:31;;;;;;;6.53;2.40;;;;;;;17.25;57.27;98386.53;3589087;40;20053;-69
2021/07/31 06:07:00;;;;;;;4.78;2.20;;;;;;;17.30;57.15;98383.91;3590408;40;20325;-69
2021/07/31 06:09:28;;;;;;;4.47;2.40;;;;;;;17.30;57.34;98391.13;3589574;40;20055;-69
2021/07/31 06:11:57;;;;;;;3.28;1.70;;;;;;;17.38;57.29;98381.88;3589542;40;20337;-69
2021/07/31 06:14:25;;;;;;;6.32;2.15;;;;;;;17.41;56.82;98384.88;3590168;40;20036;-68
2021/07/31 06:16:53;;;;;;;5.38;2.30;;;;;;;17.52;57.04;98383.16;3589751;40;20377;-68
2021/07/31 06:19:21;;;;;;;5.47;1.92;;;;;;;17.60;56.90;98382.72;3587968;40;20041;-69
2021/07/31 06:21:49;;;;;;;3.65;2.55;;;;;;;17.67;56.57;98394.00;3588791;40;20084;-69
2021/07/31 06:24:17;;;;;;;6.15;1.88;;;;;;;17.65;56.15;98390.78;3588761;40;20099;-69
2021/07/31 06:26:44;;;;;;;7.13;2.42;;;;;;;17.75;56.62;98398.97;3589541;40;20056;-69
2021/07/31 06:29:13;;;;;;;3.58;2.03;;;;;;;17.90;56.01;98393.00;3588182;40;20053;-70
2021/07/31 06:31:41;;;;;;;5.93;2.20;;;;;;;18.12;55.89;98392.16;3589498;40;20087;-69
2021/07/31 06:34:09;;;;;;;4.15;1.80;;;;;;;18.14;55.80;98396.22;3589368;40;20056;-70
2021/07/31 06:36:38;;;;;;;6.15;1.90;;;;;;;18.03;55.31;98394.47;3589258;40;20052;-69
2021/07/31 06:39:07;;;;;;;4.82;2.00;;;;;;;17.97;55.62;98392.81;3588205;40;20130;-69
2021/07/31 06:41:35;;;;;;;7.55;2.25;;;;;;;17.91;55.50;98397.28;3588174;40;20401;-69
2021/07/31 06:44:04;;;;;;;8.80;2.35;;;;;;;17.99;55.70;98396.84;3647463;22;20047;-64
2021/07/31 06:46:33;;;;;;;7.25;2.40;;;;;;;18.10;55.45;98394.28;3582793;40;20052;-64
2021/07/31 06:49:01;;;;;;;6.22;2.08;;;;;;;18.23;55.40;98396.56;3581899;40;20338;-63
2021/07/31 06:51:31;;;;;;;5.18;1.50;;;;;;;18.18;55.34;98389.28;3583530;40;20080;-63
2021/07/31 06:54:01;;;;;;;4.70;1.67;;;;;;;18.14;55.46;98393.53;3581867;40;20029;-64
2021/07/31 06:56:32;;;;;;;6.85;1.63;;;;;;;18.11;55.30;98387.88;3580468;40;20299;-64
2021/07/31 06:59:03;;;;;;;4.90;1.67;;;;;;;18.17;55.78;98389.56;3580766;40;20048;-63
2021/07/31 07:01:36;;;;;;;6.70;1.88;;;;;;;18.26;55.45;98393.38;3579441;40;20305;-64
2021/07/31 07:04:04;;;;;;;9.80;1.58;;;;;;;18.28;55.01;98394.72;3579962;40;20044;-64
2021/07/31 07:06:33;;;;;;;7.40;2.10;;;;;;;18.35;55.01;98393.75;3579818;40;20049;-61
2021/07/31 07:09:02;;;;;;;6.00;1.88;;;;;;;18.35;54.90;98394.53;3578528;40;20056;-63
2021/07/31 07:11:29;;;;;;;6.13;1.98;;;;;;;18.45;54.74;98391.97;3579616;40;20134;-63
2021/07/31 07:13:57;;;;;;;3.92;1.80;;;;;;;18.49;54.68;98394.94;3579858;40;20057;-63
2021/07/31 07:16:26;;;;;;;4.63;2.13;;;;;;;18.50;55.09;98397.38;3579687;40;20417;-63
2021/07/31 07:18:55;;;;;;;4.60;1.77;;;;;;;18.59;54.62;98394.25;3579685;40;20033;-62
2021/07/31 07:21:23;;;;;;;4.95;2.35;;;;;;;18.61;54.45;98386.75;3579661;40;20048;-64
2021/07/31 07:23:51;;;;;;;8.05;2.55;;;;;;;18.71;54.48;98393.03;3579976;40;20337;-64
2021/07/31 07:26:19;;;;;;;7.15;2.45;;;;;;;18.76;54.08;98397.63;3579717;40;20325;-64
2021/07/31 07:28:47;;;;;;;6.00;2.08;;;;;;;18.78;54.13;98401.66;3578937;40;20405;-63
2021/07/31 07:31:16;;;;;;;3.13;1.70;;;;;;;18.89;53.74;98388.34;3579246;40;20048;-63
2021/07/31 07:33:44;;;;;;;5.65;2.53;;;;;;;18.95;53.55;98382.78;3579369;40;20055;-63
2021/07/31 07:36:15;;;;;;;2.67;1.70;;;;;;;19.11;53.70;98389.06;3578947;40;20067;-63
2021/07/31 07:38:44;;;;;;;8.13;1.98;;;;;;;19.12;53.34;98385.31;3578924;40;20049;-63
2021/07/31 07:41:15;;;;;;;7.03;2.42;;;;;;;19.16;53.36;98385.59;3579047;40;20084;-63
2021/07/31 07:43:43;;;;;;;6.40;2.90;;;;;;;19.23;53.17;98378.94;3577999;40;20052;-63
2021/07/31 07:46:13;;;;;;;5.88;2.63;;;;;;;19.29;52.25;98383.25;3579570;40;20142;-62
2021/07/31 07:48:46;;;;;;;5.40;2.35;;;;;;;19.40;52.33;98383.34;3578971;40;20045;-62
2021/07/31 07:51:19;;;;;;;5.60;1.85;;;;;;;19.50;51.78;98378.00;3588140;40;20048;-62
2021/07/31 07:53:47;;;;;;;6.43;2.28;;;;;;;19.49;51.53;98384.44;3579094;40;20049;-63
2021/07/31 07:56:14;;;;;;;6.60;2.22;;;;;;;19.58;51.47;98384.75;3578940;40;20052;-61
2021/07/31 07:58:42;;;;;;;6.05;2.13;;;;;;;19.65;51.08;98378.13;3578983;40;20056;-62
2021/07/31 08:01:10;;;;;;;3.03;2.10;;;;;;;19.57;50.96;98380.47;3579197;40;20029;-63
2021/07/31 08:03:39;;;;;;;5.55;2.00;;;;;;;19.56;50.76;98379.66;3586675;40;20123;-62
2021/07/31 08:06:06;;;;;;;10.43;2.20;;;;;;;19.58;50.82;98384.75;3578783;40;20056;-63
2021/07/31 08:08:36;;;;;;;6.13;2.10;;;;;;;19.73;50.86;98392.91;3578693;40;20049;-64
2021/07/31 08:11:07;;;;;;;4.75;1.95;;;;;;;19.83;50.51;98392.13;3579124;40;20056;-61
2021/07/31 08:13:35;;;;;;;5.75;2.03;;;;;;;19.95;50.45;98398.88;3586581;40;20049;-61
2021/07/31 08:16:04;;;;;;;6.60;2.17;;;;;;;20.04;49.65;98383.91;3586495;40;20052;-61
2021/07/31 08:18:32;;;;;;;7.85;2.50;;;;;;;20.07;49.30;98392.47;3578675;40;20088;-62
2021/07/31 08:21:00;;;;;;;3.33;1.80;;;;;;;20.04;48.77;98383.06;3577836;40;20041;-61
2021/07/31 08:23:28;;;;;;;3.72;1.73;;;;;;;20.02;48.74;98374.50;3578539;40;20052;-62
2021/07/31 08:25:57;;;;;;;6.53;1.95;;;;;;;20.03;48.95;98384.16;3578660;40;20052;-61
2021/07/31 08:28:25;;;;;;;3.55;1.90;;;;;;;20.13;48.54;98389.56;3579540;40;20064;-63
2021/07/31 08:30:52;;;;;;;5.40;1.92;;;;;;;20.21;48.53;98380.19;3580787;40;20045;-62
2021/07/31 08:33:23;;;;;;;5.72;1.60;;;;;;;20.17;48.10;98377.22;3580944;40;20303;-62
2021/07/31 08:35:52;;;;;;;3.63;1.90;;;;;;;20.20;47.98;98381.22;3587749;40;20057;-62
2021/07/31 08:38:20;;;;;;;4.13;1.63;;;;;;;20.13;47.81;98381.50;3587373;40;20037;-62
2021/07/31 08:40:48;;;;;;;3.45;1.77;;;;;;;20.28;47.60;98381.50;3579093;40;20053;-63
2021/07/31 08:43:17;;;;;;;4.65;1.70;;;;;;;20.29;47.45;98382.34;3580087;40;20060;-64
2021/07/31 08:45:46;;;;;;;3.92;1.80;;;;;;;20.41;47.69;98380.22;3580045;40;20049;-64
2021/07/31 08:48:15;;;;;;;3.17;1.77;;;;;;;20.55;47.41;98385.09;3579843;40;20017;-63
2021/07/31 08:50:44;;;;;;;6.13;1.80;;;;;;;20.68;47.06;98381.88;3580177;40;20053;-64
2021/07/31 08:53:12;;;;;;;5.65;2.83;;;;;;;20.69;47.04;98386.16;3580795;40;20053;-63
2021/07/31 08:55:42;;;;;;;3.15;2.00;;;;;;;20.83;46.69;98389.13;3579862;40;20045;-64
2021/07/31 08:58:10;;;;;;;2.28;1.67;;;;;;;20.95;46.09;98381.59;3579741;40;20048;-64
2021/07/31 09:00:39;;;;;;;3.78;2.13;;;;;;;21.02;46.08;98387.47;3579881;40;20366;-64
2021/07/31 09:03:07;;;;;;;4.43;1.90;;;;;;;21.13;45.63;98383.72;3579977;40;20048;-63
2021/07/31 09:05:37;;;;;;;5.10;2.03;;;;;;;21.07;45.24;98384.00;3579958;40;20291;-62
2021/07/31 09:08:07;;;;;;;4.05;1.75;;;;;;;21.06;45.37;98388.56;3579630;40;20325;-63
2021/07/31 09:10:37;;;;;;;4.18;1.90;;;;;;;21.18;45.40;98369.44;3581342;40;20045;-63
2021/07/31 09:13:09;;;;;;;5.90;1.98;;;;;;;21.27;45.36;98384.78;3579310;40;20307;-63
2021/07/31 09:15:40;;;;;;;3.65;1.88;;;;;;;21.26;45.10;98385.03;3580466;40;20379;-61
2021/07/31 09:18:22;;;;;;;2.92;1.35;;;;;;;21.28;45.25;98382.88;3578717;40;20049;-63
2021/07/31 09:21:02;;;;;;;4.78;1.80;;;;;;;21.44;44.92;98375.63;3580045;40;20437;-63
2021/07/31 09:23:41;;;;;;;6.57;1.83;;;;;;;21.37;45.37;98383.97;3587897;40;20429;-63
2021/07/31 09:26:09;;;;;;;4.20;1.88;;;;;;;21.33;45.56;98374.84;3579967;40;20079;-62
2021/07/31 09:28:40;;;;;;;5.55;1.77;;;;;;;21.32;45.46;98375.91;3580274;40;20029;-62
2021/07/31 09:31:14;;;;;;;5.53;2.40;;;;;;;21.27;45.20;98384.78;3581415;40;20114;-62
2021/07/31 09:33:44;;;;;;;5.93;2.10;;;;;;;21.28;45.30;98382.88;3580661;40;20048;-62
2021/07/31 09:36:12;;;;;;;4.32;1.90;;;;;;;21.47;44.93;98378.56;3581288;40;20499;-62
2021/07/31 09:38:41;;;;;;;5.45;2.47;;;;;;;21.73;44.06;98383.84;3580479;40;20053;-63
2021/07/31 09:41:32;;;;;;;4.57;2.05;;;;;;;21.99;43.75;98379.16;3582310;40;20068;-62
2021/07/31 09:44:07;;;;;;;4.85;2.00;;;;;;;22.32;43.32;98376.84;3581368;40;20057;-63
2021/07/31 09:46:38;;;;;;;4.78;2.28;;;;;;;22.49;42.92;98377.25;3581915;40;20131;-62
2021/07/31 09:49:08;;;;;;;4.47;2.15;;;;;;;22.61;42.49;98369.63;3580767;40;20138;-62
2021/07/31 09:51:37;;;;;;;3.88;2.17;;;;;;;22.57;42.19;98376.66;3589295;40;20491;-61
2021/07/31 09:54:09;;;;;;;8.30;2.08;;;;;;;22.35;42.39;98360.94;3582755;40;20029;-62
2021/07/31 09:56:41;;;;;;;5.25;2.17;;;;;;;22.06;41.80;98374.28;3582851;40;20048;-62
2021/07/31 09:59:11;;;;;;;3.63;2.00;;;;;;;21.95;42.41;98373.50;3581526;40;20110;-63
2021/07/31 10:01:43;;;;;;;3.75;2.05;;;;;;;22.01;42.17;98380.50;3581965;40;20045;-63
2021/07/31 10:04:11;;;;;;;4.57;2.03;;;;;;;21.87;42.39;98376.78;3581658;40;20041;-62
2021/07/31 10:06:40;;;;;;;4.65;1.70;;;;;;;22.02;42.25;98375.91;3590350;40;20052;-62
2021/07/31 10:09:08;;;;;;;3.47;2.15;;;;;;;22.46;42.21;98383.22;3581865;40;20044;-62
2021/07/31 10:11:38;;;;;;;2.97;1.70;;;;;;;22.70;41.99;98375.22;3582057;40;20047;-62
2021/07/31 10:14:08;;;;;;;4.03;2.33;;;;;;;22.78;41.86;98385.41;3582106;40;20053;-62
2021/07/31 10:16:39;;;;;;;3.92;2.00;;;;;;;22.81;41.19;98375.94;3582740;40;20056;-62
2021/07/31 10:19:10;;;;;;;4.80;1.92;;;;;;;22.77;40.96;98378.38;3580483;40;20131;-65
2021/07/31 10:21:48;;;;;;;3.22;1.92;;;;;;;22.91;40.52;98370.50;3589544;40;20048;-61
2021/07/31 10:24:16;;;;;;;7.22;2.50;;;;;;;22.87;40.88;98369.44;3589090;40;20033;-63
2021/07/31 10:27:21;;;;;;;8.18;2.90;;;;;;;22.97;41.16;98369.34;3581678;40;20507;-63
2021/07/31 10:29:50;;;;;;;3.17;2.17;;;;;;;23.01;40.88;98366.88;3579354;40;20076;-63
2021/07/31 10:32:35;;;;;;;3.35;2.00;;;;;;;23.04;40.86;98372.53;3581005;40;20049;-64
2021/07/31 10:35:06;;;;;;;2.38;1.98;;;;;;;23.04;41.06;98372.53;3580723;40;20045;-63
2021/07/31 10:37:45;;;;;;;3.83;2.20;;;;;;;22.82;41.25;98372.13;3580490;40;20143;-64
2021/07/31 10:40:56;;;;;;;1.92;1.73;;;;;;;22.69;41.06;98371.72;3580411;40;20036;-63
2021/07/31 10:43:25;;;;;;;5.07;2.05;;;;;;;22.73;41.41;98371.94;3581237;40;20102;-63
2021/07/31 10:46:20;;;;;;;4.05;1.92;;;;;;;22.65;40.94;98376.03;3580952;40;20073;-62
2021/07/31 10:48:48;;;;;;;3.90;2.03;;;;;;;22.55;41.63;98375.34;3581391;40;20487;-61
2021/07/31 10:51:43;;;;;;;5.18;2.10;;;;;;;22.55;41.64;98367.25;3581254;40;20409;-62
2021/07/31 10:54:11;;;;;;;3.22;1.90;;;;;;;22.64;41.98;98366.38;3582199;40;20030;-61
2021/07/31 10:56:55;;;;;;;5.28;2.10;;;;;;;22.46;41.86;98375.94;3582365;40;20025;-62
2021/07/31 10:59:24;;;;;;;3.67;1.67;;;;;;;22.19;42.19;98378.25;3581035;40;20052;-64
2021/07/31 11:02:30;;;;;;;3.33;1.83;;;;;;;22.07;42.42;98375.06;3581351;40;20060;-62
2021/07/31 11:04:59;;;;;;;5.25;2.13;;;;;;;22.01;42.66;98375.13;3588576;40;20045;-62
2021/07/31 11:07:29;;;;;;;7.55;1.92;;;;;;;21.98;42.97;98380.25;3580241;40;20461;-62
2021/07/31 11:10:43;;;;;;;4.88;2.30;;;;;;;21.99;42.78;98373.75;3579921;40;20052;-62
2021/07/31 11:13:12;;;;;;;3.17;1.70;;;;;;;21.98;42.97;98372.97;3580821;40;20080;-62
2021/07/31 11:16:14;;;;;;;5.95;2.03;;;;;;;22.00;43.02;98380.75;3581399;40;20029;-61
2021/07/31 11:18:45;;;;;;;4.45;2.10;;;;;;;22.15;43.18;98366.44;3580728;40;20162;-62
2021/07/31 11:21:15;;;;;;;4.10;2.05;;;;;;;22.16;43.04;98379.63;3579843;40;20048;-62
2021/07/31 11:23:47;;;;;;;5.35;2.25;;;;;;;22.01;43.24;98369.72;3581308;40;20100;-63
2021/07/31 11:26:42;;;;;;;2.42;1.73;;;;;;;21.97;43.18;98384.81;3580680;40;20330;-62
2021/07/31 11:29:16;;;;;;;4.60;2.10;;;;;;;21.90;43.21;98384.31;3582317;40;20085;-62
2021/07/31 11:31:57;;;;;;;2.92;1.83;;;;;;;21.76;43.23;98377.94;3582924;40;20096;-63
2021/07/31 11:34:25;;;;;;;3.85;1.80;;;;;;;21.84;43.91;98381.91;3582333;40;20126;-63
2021/07/31 11:36:56;;;;;;;4.60;1.90;;;;;;;22.04;43.47;98386.38;3581070;40;20479;-61
2021/07/31 11:39:25;;;;;;;2.28;1.70;;;;;;;22.13;43.29;98390.16;3581946;40;20049;-62
2021/07/31 11:41:57;;;;;;;3.67;1.75;;;;;;;22.27;43.21;98387.66;3582076;40;20049;-62
2021/07/31 11:44:26;;;;;;;4.55;1.77;;;;;;;22.33;42.87;98379.28;3582295;40;20033;-61
2021/07/31 11:46:54;;;;;;;6.75;1.80;;;;;;;22.23;42.43;98382.81;3588492;40;20049;-60
2021/07/31 11:49:27;;;;;;;2.33;2.00;;;;;;;22.36;42.72;98377.88;3588771;40;20045;-61
2021/07/31 11:51:56;;;;;;;5.60;1.95;;;;;;;22.48;42.73;98379.13;3581197;40;20053;-61